KAZO

Kalamazoo / Battle Creek International Airport

Kalamazoo, Michigan, USA
METAR KAZO 230953Z AUTO VRB06KT 7SM OVC006 03/01 A3019 RMK AO2 SLP231 T00280011
Observed Flight Rules
Feb-23 @ 09:53 UTC (35 minutes ago) Instrument Flight Rules
Wind Visibility Clouds
Variable at 6 knots 7 miles
  • Overcast at 600' AGL
Temperatures Readings
Current 3°C / 37°F
Dewpoint 1°C / 34°F
Humidity 87%
Altimeter 30.19" Hg
Pressure 1023.1 hPa
Elevation 272
METAR KAZO 230953Z AUTO VRB06KT 7SM OVC006 03/01 A3019 RMK AO2 SLP231 T00280011
Observed Flight Rules
Feb-23 @ 09:53 UTC
(35 minutes ago)
IFR
Wind Visibility
Variable at 6 knots 7 miles
Clouds
  • Overcast at 600' AGL
Temperature Dewpoint
3°C / 37°F 1°C / 34°F
Humidity Altimeter Pressure
87% 30.19" Hg 1023.1 hPa